sensor_id;sensor_type;location;lat;lon;timestamp;P1;durP1;ratioP1;P2;durP2;ratioP2
59518;SDS011;46994;54.976;73.404;2022-08-19T00:01:56;0.88;;;0.80;;
59518;SDS011;46994;54.976;73.404;2022-08-19T00:04:25;1.10;;;0.80;;
59518;SDS011;46994;54.976;73.404;2022-08-19T00:06:54;4.47;;;0.93;;
59518;SDS011;46994;54.976;73.404;2022-08-19T00:09:40;1.00;;;0.80;;
59518;SDS011;46994;54.976;73.404;2022-08-19T00:12:06;1.00;;;0.90;;
59518;SDS011;46994;54.976;73.404;2022-08-19T00:14:34;3.42;;;0.90;;
59518;SDS011;46994;54.976;73.404;2022-08-19T00:17:02;1.85;;;1.13;;
59518;SDS011;46994;54.976;73.404;2022-08-19T00:19:29;1.40;;;1.02;;
59518;SDS011;46994;54.976;73.404;2022-08-19T00:21:57;1.23;;;0.90;;
59518;SDS011;46994;54.976;73.404;2022-08-19T00:24:23;1.38;;;0.93;;
59518;SDS011;46994;54.976;73.404;2022-08-19T00:26:51;6.18;;;0.90;;
59518;SDS011;46994;54.976;73.404;2022-08-19T00:29:19;1.15;;;0.95;;
59518;SDS011;46994;54.976;73.404;2022-08-19T00:31:47;4.85;;;1.23;;
59518;SDS011;46994;54.976;73.404;2022-08-19T00:34:14;1.33;;;0.80;;
59518;SDS011;46994;54.976;73.404;2022-08-19T00:36:41;2.03;;;1.05;;
59518;SDS011;46994;54.976;73.404;2022-08-19T00:39:08;2.67;;;1.00;;
59518;SDS011;46994;54.976;73.404;2022-08-19T00:41:37;1.85;;;1.50;;
59518;SDS011;46994;54.976;73.404;2022-08-19T00:46:58;3.00;;;1.02;;
59518;SDS011;46994;54.976;73.404;2022-08-19T00:49:27;1.13;;;0.80;;
59518;SDS011;46994;54.976;73.404;2022-08-19T00:52:04;1.58;;;1.10;;
59518;SDS011;46994;54.976;73.404;2022-08-19T00:54:38;4.78;;;1.00;;
59518;SDS011;46994;54.976;73.404;2022-08-19T00:57:07;5.32;;;1.10;;
59518;SDS011;46994;54.976;73.404;2022-08-19T00:59:38;2.20;;;1.15;;
59518;SDS011;46994;54.976;73.404;2022-08-19T01:02:08;2.88;;;1.27;;
59518;SDS011;46994;54.976;73.404;2022-08-19T01:04:35;3.33;;;1.20;;
59518;SDS011;46994;54.976;73.404;2022-08-19T01:07:02;2.40;;;1.10;;
59518;SDS011;46994;54.976;73.404;2022-08-19T01:09:29;3.90;;;0.90;;
59518;SDS011;46994;54.976;73.404;2022-08-19T01:11:56;2.78;;;1.00;;
59518;SDS011;46994;54.976;73.404;2022-08-19T01:14:23;5.07;;;1.23;;
59518;SDS011;46994;54.976;73.404;2022-08-19T01:16:51;1.52;;;1.00;;
59518;SDS011;46994;54.976;73.404;2022-08-19T01:19:25;4.72;;;1.75;;
59518;SDS011;46994;54.976;73.404;2022-08-19T01:21:56;3.67;;;1.90;;
59518;SDS011;46994;54.976;73.404;2022-08-19T01:24:29;6.88;;;2.03;;
59518;SDS011;46994;54.976;73.404;2022-08-19T01:26:57;4.63;;;1.45;;
59518;SDS011;46994;54.976;73.404;2022-08-19T01:29:25;2.70;;;1.40;;
59518;SDS011;46994;54.976;73.404;2022-08-19T01:31:51;6.07;;;1.38;;
59518;SDS011;46994;54.976;73.404;2022-08-19T01:34:20;10.32;;;1.65;;
59518;SDS011;46994;54.976;73.404;2022-08-19T01:36:49;7.60;;;1.42;;
59518;SDS011;46994;54.976;73.404;2022-08-19T01:39:18;7.45;;;1.58;;
59518;SDS011;46994;54.976;73.404;2022-08-19T01:41:49;6.15;;;1.58;;
59518;SDS011;46994;54.976;73.404;2022-08-19T01:44:16;3.45;;;1.23;;
59518;SDS011;46994;54.976;73.404;2022-08-19T01:46:47;5.35;;;1.58;;
59518;SDS011;46994;54.976;73.404;2022-08-19T01:49:17;8.52;;;1.55;;
59518;SDS011;46994;54.976;73.404;2022-08-19T01:51:46;9.40;;;1.67;;
59518;SDS011;46994;54.976;73.404;2022-08-19T01:54:14;3.67;;;1.85;;
59518;SDS011;46994;54.976;73.404;2022-08-19T01:56:42;4.75;;;2.15;;
59518;SDS011;46994;54.976;73.404;2022-08-19T01:59:10;8.43;;;2.83;;
59518;SDS011;46994;54.976;73.404;2022-08-19T02:01:40;8.98;;;2.53;;
59518;SDS011;46994;54.976;73.404;2022-08-19T02:04:07;10.52;;;2.97;;
59518;SDS011;46994;54.976;73.404;2022-08-19T02:06:34;10.35;;;2.28;;
59518;SDS011;46994;54.976;73.404;2022-08-19T02:09:02;8.75;;;2.40;;
59518;SDS011;46994;54.976;73.404;2022-08-19T02:11:31;22.73;;;3.40;;
59518;SDS011;46994;54.976;73.404;2022-08-19T02:14:00;17.40;;;2.42;;
59518;SDS011;46994;54.976;73.404;2022-08-19T02:16:29;17.08;;;2.35;;
59518;SDS011;46994;54.976;73.404;2022-08-19T02:18:56;10.50;;;1.70;;
59518;SDS011;46994;54.976;73.404;2022-08-19T02:21:26;7.72;;;1.90;;
59518;SDS011;46994;54.976;73.404;2022-08-19T02:23:54;6.10;;;1.77;;
59518;SDS011;46994;54.976;73.404;2022-08-19T02:26:21;35.90;;;5.63;;
59518;SDS011;46994;54.976;73.404;2022-08-19T02:28:49;18.13;;;2.20;;
59518;SDS011;46994;54.976;73.404;2022-08-19T02:31:17;12.65;;;2.28;;
59518;SDS011;46994;54.976;73.404;2022-08-19T02:33:46;6.68;;;2.33;;
59518;SDS011;46994;54.976;73.404;2022-08-19T02:36:13;4.07;;;2.30;;
59518;SDS011;46994;54.976;73.404;2022-08-19T02:38:42;6.38;;;1.90;;
59518;SDS011;46994;54.976;73.404;2022-08-19T02:41:17;13.07;;;2.55;;
59518;SDS011;46994;54.976;73.404;2022-08-19T02:43:46;5.53;;;1.70;;
59518;SDS011;46994;54.976;73.404;2022-08-19T02:46:14;5.90;;;1.65;;
59518;SDS011;46994;54.976;73.404;2022-08-19T02:48:43;11.30;;;2.13;;
59518;SDS011;46994;54.976;73.404;2022-08-19T02:51:15;5.75;;;2.05;;
59518;SDS011;46994;54.976;73.404;2022-08-19T02:53:47;8.57;;;2.97;;
59518;SDS011;46994;54.976;73.404;2022-08-19T02:56:14;10.20;;;3.03;;
59518;SDS011;46994;54.976;73.404;2022-08-19T02:58:41;10.90;;;2.20;;
59518;SDS011;46994;54.976;73.404;2022-08-19T03:01:09;13.30;;;3.40;;
59518;SDS011;46994;54.976;73.404;2022-08-19T03:03:37;13.02;;;2.45;;
59518;SDS011;46994;54.976;73.404;2022-08-19T03:06:14;8.70;;;2.60;;
59518;SDS011;46994;54.976;73.404;2022-08-19T03:08:43;6.38;;;2.60;;
59518;SDS011;46994;54.976;73.404;2022-08-19T03:11:14;13.50;;;3.45;;
59518;SDS011;46994;54.976;73.404;2022-08-19T03:13:46;20.05;;;3.13;;
59518;SDS011;46994;54.976;73.404;2022-08-19T03:16:15;12.77;;;2.35;;
59518;SDS011;46994;54.976;73.404;2022-08-19T03:18:42;5.05;;;2.05;;
59518;SDS011;46994;54.976;73.404;2022-08-19T03:21:09;10.23;;;2.30;;
59518;SDS011;46994;54.976;73.404;2022-08-19T03:23:42;6.68;;;2.42;;
59518;SDS011;46994;54.976;73.404;2022-08-19T03:26:09;9.07;;;2.40;;
59518;SDS011;46994;54.976;73.404;2022-08-19T03:28:36;5.10;;;1.98;;
59518;SDS011;46994;54.976;73.404;2022-08-19T03:31:08;17.83;;;2.78;;
59518;SDS011;46994;54.976;73.404;2022-08-19T03:33:38;14.30;;;2.50;;
59518;SDS011;46994;54.976;73.404;2022-08-19T03:36:19;8.88;;;2.47;;
59518;SDS011;46994;54.976;73.404;2022-08-19T03:38:52;10.45;;;2.63;;
59518;SDS011;46994;54.976;73.404;2022-08-19T03:41:23;12.65;;;2.78;;
59518;SDS011;46994;54.976;73.404;2022-08-19T03:43:52;7.78;;;2.80;;
59518;SDS011;46994;54.976;73.404;2022-08-19T03:46:24;11.35;;;2.40;;
59518;SDS011;46994;54.976;73.404;2022-08-19T03:48:53;8.30;;;2.28;;
59518;SDS011;46994;54.976;73.404;2022-08-19T03:51:22;23.35;;;3.30;;
59518;SDS011;46994;54.976;73.404;2022-08-19T03:53:55;6.43;;;2.22;;
59518;SDS011;46994;54.976;73.404;2022-08-19T03:56:22;21.52;;;3.22;;
59518;SDS011;46994;54.976;73.404;2022-08-19T03:58:52;5.65;;;2.38;;
59518;SDS011;46994;54.976;73.404;2022-08-19T04:01:20;10.15;;;2.42;;
59518;SDS011;46994;54.976;73.404;2022-08-19T04:03:48;8.27;;;2.75;;
59518;SDS011;46994;54.976;73.404;2022-08-19T04:06:17;8.02;;;2.35;;
59518;SDS011;46994;54.976;73.404;2022-08-19T04:08:47;12.48;;;2.75;;
59518;SDS011;46994;54.976;73.404;2022-08-19T04:11:21;21.55;;;2.53;;
59518;SDS011;46994;54.976;73.404;2022-08-19T04:13:51;11.93;;;2.63;;
59518;SDS011;46994;54.976;73.404;2022-08-19T04:16:19;9.27;;;3.15;;
59518;SDS011;46994;54.976;73.404;2022-08-19T04:18:50;17.10;;;3.17;;
59518;SDS011;46994;54.976;73.404;2022-08-19T04:21:18;14.18;;;3.35;;
59518;SDS011;46994;54.976;73.404;2022-08-19T04:23:51;6.22;;;3.30;;
59518;SDS011;46994;54.976;73.404;2022-08-19T04:26:22;12.90;;;3.30;;
59518;SDS011;46994;54.976;73.404;2022-08-19T04:28:52;7.65;;;2.42;;
59518;SDS011;46994;54.976;73.404;2022-08-19T04:31:23;10.13;;;2.47;;
59518;SDS011;46994;54.976;73.404;2022-08-19T04:33:55;11.48;;;3.80;;
59518;SDS011;46994;54.976;73.404;2022-08-19T04:36:24;20.13;;;3.20;;
59518;SDS011;46994;54.976;73.404;2022-08-19T04:38:56;19.95;;;3.60;;
59518;SDS011;46994;54.976;73.404;2022-08-19T04:41:25;6.93;;;2.53;;
59518;SDS011;46994;54.976;73.404;2022-08-19T04:44:11;13.88;;;3.72;;
59518;SDS011;46994;54.976;73.404;2022-08-19T04:46:38;15.90;;;3.55;;
59518;SDS011;46994;54.976;73.404;2022-08-19T04:49:06;19.98;;;4.00;;
59518;SDS011;46994;54.976;73.404;2022-08-19T04:51:34;29.38;;;2.95;;
59518;SDS011;46994;54.976;73.404;2022-08-19T04:54:03;18.85;;;3.83;;
59518;SDS011;46994;54.976;73.404;2022-08-19T04:56:30;21.67;;;3.17;;
59518;SDS011;46994;54.976;73.404;2022-08-19T04:58:57;24.23;;;3.33;;
59518;SDS011;46994;54.976;73.404;2022-08-19T05:01:29;21.77;;;4.10;;
59518;SDS011;46994;54.976;73.404;2022-08-19T05:04:02;11.00;;;3.10;;
59518;SDS011;46994;54.976;73.404;2022-08-19T05:06:31;5.68;;;2.90;;
59518;SDS011;46994;54.976;73.404;2022-08-19T05:09:02;7.95;;;2.65;;
59518;SDS011;46994;54.976;73.404;2022-08-19T05:11:33;13.63;;;2.53;;
59518;SDS011;46994;54.976;73.404;2022-08-19T05:14:08;8.88;;;2.70;;
59518;SDS011;46994;54.976;73.404;2022-08-19T05:16:35;8.25;;;2.85;;
59518;SDS011;46994;54.976;73.404;2022-08-19T05:19:02;12.48;;;2.33;;
59518;SDS011;46994;54.976;73.404;2022-08-19T05:21:47;14.88;;;4.18;;
59518;SDS011;46994;54.976;73.404;2022-08-19T05:24:32;8.30;;;2.63;;
59518;SDS011;46994;54.976;73.404;2022-08-19T05:27:00;8.73;;;2.80;;
59518;SDS011;46994;54.976;73.404;2022-08-19T05:29:29;9.90;;;2.30;;
59518;SDS011;46994;54.976;73.404;2022-08-19T05:31:58;13.43;;;4.50;;
59518;SDS011;46994;54.976;73.404;2022-08-19T05:34:25;15.45;;;4.13;;
59518;SDS011;46994;54.976;73.404;2022-08-19T05:36:54;15.63;;;3.38;;
59518;SDS011;46994;54.976;73.404;2022-08-19T05:39:27;21.25;;;4.78;;
59518;SDS011;46994;54.976;73.404;2022-08-19T05:41:59;17.52;;;3.45;;
59518;SDS011;46994;54.976;73.404;2022-08-19T05:44:30;10.23;;;2.67;;
59518;SDS011;46994;54.976;73.404;2022-08-19T05:46:59;13.40;;;4.07;;
59518;SDS011;46994;54.976;73.404;2022-08-19T05:49:28;10.50;;;2.42;;
59518;SDS011;46994;54.976;73.404;2022-08-19T05:51:55;29.00;;;3.63;;
59518;SDS011;46994;54.976;73.404;2022-08-19T05:54:23;15.20;;;1.70;;
59518;SDS011;46994;54.976;73.404;2022-08-19T05:56:50;12.07;;;1.75;;
59518;SDS011;46994;54.976;73.404;2022-08-19T05:59:18;9.50;;;1.95;;
59518;SDS011;46994;54.976;73.404;2022-08-19T06:01:48;8.52;;;1.52;;
59518;SDS011;46994;54.976;73.404;2022-08-19T06:04:21;19.10;;;1.83;;
59518;SDS011;46994;54.976;73.404;2022-08-19T06:06:49;6.47;;;2.42;;
59518;SDS011;46994;54.976;73.404;2022-08-19T06:09:18;6.68;;;2.05;;
59518;SDS011;46994;54.976;73.404;2022-08-19T06:11:47;7.93;;;1.92;;
59518;SDS011;46994;54.976;73.404;2022-08-19T06:14:20;3.35;;;1.70;;
59518;SDS011;46994;54.976;73.404;2022-08-19T06:16:49;8.13;;;1.40;;
59518;SDS011;46994;54.976;73.404;2022-08-19T06:19:19;6.25;;;1.90;;
59518;SDS011;46994;54.976;73.404;2022-08-19T06:21:48;20.73;;;2.28;;
59518;SDS011;46994;54.976;73.404;2022-08-19T06:24:18;11.88;;;2.03;;
59518;SDS011;46994;54.976;73.404;2022-08-19T06:26:50;10.15;;;2.03;;
59518;SDS011;46994;54.976;73.404;2022-08-19T06:29:21;9.65;;;2.05;;
59518;SDS011;46994;54.976;73.404;2022-08-19T06:31:51;6.88;;;1.98;;
59518;SDS011;46994;54.976;73.404;2022-08-19T06:34:22;8.68;;;2.20;;
59518;SDS011;46994;54.976;73.404;2022-08-19T06:36:51;28.35;;;3.10;;
59518;SDS011;46994;54.976;73.404;2022-08-19T06:39:29;10.77;;;2.55;;
59518;SDS011;46994;54.976;73.404;2022-08-19T06:41:59;10.32;;;2.33;;
59518;SDS011;46994;54.976;73.404;2022-08-19T06:44:30;4.32;;;2.28;;
59518;SDS011;46994;54.976;73.404;2022-08-19T06:47:01;9.73;;;3.42;;
59518;SDS011;46994;54.976;73.404;2022-08-19T06:49:30;8.65;;;2.22;;
59518;SDS011;46994;54.976;73.404;2022-08-19T06:51:58;13.77;;;1.88;;
59518;SDS011;46994;54.976;73.404;2022-08-19T06:54:26;4.53;;;1.73;;
59518;SDS011;46994;54.976;73.404;2022-08-19T06:56:56;14.48;;;2.03;;
59518;SDS011;46994;54.976;73.404;2022-08-19T06:59:24;10.02;;;2.53;;
59518;SDS011;46994;54.976;73.404;2022-08-19T07:01:55;14.00;;;1.80;;
59518;SDS011;46994;54.976;73.404;2022-08-19T07:04:24;5.45;;;1.92;;
59518;SDS011;46994;54.976;73.404;2022-08-19T07:06:59;6.78;;;2.00;;
59518;SDS011;46994;54.976;73.404;2022-08-19T07:09:27;7.18;;;2.22;;
59518;SDS011;46994;54.976;73.404;2022-08-19T07:11:55;13.25;;;2.60;;
59518;SDS011;46994;54.976;73.404;2022-08-19T07:14:23;38.25;;;3.65;;
59518;SDS011;46994;54.976;73.404;2022-08-19T07:16:53;25.67;;;3.60;;
59518;SDS011;46994;54.976;73.404;2022-08-19T07:19:22;19.98;;;3.00;;
59518;SDS011;46994;54.976;73.404;2022-08-19T07:21:53;10.90;;;2.80;;
59518;SDS011;46994;54.976;73.404;2022-08-19T07:24:21;22.45;;;2.38;;
59518;SDS011;46994;54.976;73.404;2022-08-19T07:26:51;7.97;;;2.17;;
59518;SDS011;46994;54.976;73.404;2022-08-19T07:29:20;7.35;;;2.20;;
59518;SDS011;46994;54.976;73.404;2022-08-19T07:31:50;10.38;;;2.50;;
59518;SDS011;46994;54.976;73.404;2022-08-19T07:34:20;3.50;;;2.10;;
59518;SDS011;46994;54.976;73.404;2022-08-19T07:36:48;8.30;;;1.80;;
59518;SDS011;46994;54.976;73.404;2022-08-19T07:39:20;17.35;;;2.80;;
59518;SDS011;46994;54.976;73.404;2022-08-19T07:44:17;9.70;;;2.03;;
59518;SDS011;46994;54.976;73.404;2022-08-19T07:46:47;6.90;;;2.30;;
59518;SDS011;46994;54.976;73.404;2022-08-19T07:49:16;14.57;;;2.67;;
59518;SDS011;46994;54.976;73.404;2022-08-19T07:51:46;12.10;;;2.20;;
59518;SDS011;46994;54.976;73.404;2022-08-19T07:54:15;6.43;;;2.78;;
59518;SDS011;46994;54.976;73.404;2022-08-19T07:56:43;20.77;;;2.92;;
59518;SDS011;46994;54.976;73.404;2022-08-19T07:59:10;11.65;;;2.47;;
59518;SDS011;46994;54.976;73.404;2022-08-19T08:01:38;11.38;;;2.83;;
59518;SDS011;46994;54.976;73.404;2022-08-19T08:04:06;10.73;;;2.90;;
59518;SDS011;46994;54.976;73.404;2022-08-19T08:06:52;10.77;;;2.90;;
59518;SDS011;46994;54.976;73.404;2022-08-19T08:09:39;13.15;;;2.70;;
59518;SDS011;46994;54.976;73.404;2022-08-19T08:12:17;17.25;;;2.83;;
59518;SDS011;46994;54.976;73.404;2022-08-19T08:14:53;16.23;;;2.70;;
59518;SDS011;46994;54.976;73.404;2022-08-19T08:17:24;10.40;;;3.17;;
59518;SDS011;46994;54.976;73.404;2022-08-19T08:19:52;7.10;;;2.20;;
59518;SDS011;46994;54.976;73.404;2022-08-19T08:22:20;23.17;;;2.70;;
59518;SDS011;46994;54.976;73.404;2022-08-19T08:25:13;8.30;;;2.05;;
59518;SDS011;46994;54.976;73.404;2022-08-19T08:27:43;8.70;;;2.60;;
59518;SDS011;46994;54.976;73.404;2022-08-19T08:30:22;19.63;;;1.90;;
59518;SDS011;46994;54.976;73.404;2022-08-19T08:32:50;4.68;;;2.33;;
59518;SDS011;46994;54.976;73.404;2022-08-19T08:35:18;26.08;;;5.63;;
59518;SDS011;46994;54.976;73.404;2022-08-19T08:37:48;27.48;;;4.10;;
59518;SDS011;46994;54.976;73.404;2022-08-19T08:40:28;24.55;;;3.38;;
59518;SDS011;46994;54.976;73.404;2022-08-19T08:43:07;23.20;;;5.15;;
59518;SDS011;46994;54.976;73.404;2022-08-19T08:45:46;43.80;;;7.22;;
59518;SDS011;46994;54.976;73.404;2022-08-19T08:48:30;35.67;;;7.68;;
59518;SDS011;46994;54.976;73.404;2022-08-19T08:51:06;46.17;;;7.55;;
59518;SDS011;46994;54.976;73.404;2022-08-19T08:53:37;47.60;;;6.47;;
59518;SDS011;46994;54.976;73.404;2022-08-19T08:56:06;26.55;;;4.88;;
59518;SDS011;46994;54.976;73.404;2022-08-19T08:58:49;48.30;;;8.60;;
59518;SDS011;46994;54.976;73.404;2022-08-19T09:01:23;77.57;;;8.52;;
59518;SDS011;46994;54.976;73.404;2022-08-19T09:03:50;50.60;;;7.88;;
59518;SDS011;46994;54.976;73.404;2022-08-19T09:09:29;48.72;;;7.60;;
59518;SDS011;46994;54.976;73.404;2022-08-19T09:17:32;52.58;;;9.82;;
59518;SDS011;46994;54.976;73.404;2022-08-19T09:20:05;50.33;;;7.68;;
59518;SDS011;46994;54.976;73.404;2022-08-19T09:22:37;33.58;;;5.88;;
59518;SDS011;46994;54.976;73.404;2022-08-19T09:25:05;34.08;;;6.10;;
59518;SDS011;46994;54.976;73.404;2022-08-19T09:27:35;45.33;;;6.05;;
59518;SDS011;46994;54.976;73.404;2022-08-19T09:30:05;40.85;;;6.65;;
59518;SDS011;46994;54.976;73.404;2022-08-19T09:32:33;40.92;;;7.45;;
59518;SDS011;46994;54.976;73.404;2022-08-19T09:35:00;35.75;;;6.70;;
59518;SDS011;46994;54.976;73.404;2022-08-19T09:37:27;52.97;;;6.93;;
59518;SDS011;46994;54.976;73.404;2022-08-19T09:39:54;35.67;;;6.45;;
59518;SDS011;46994;54.976;73.404;2022-08-19T09:42:21;41.97;;;6.55;;
59518;SDS011;46994;54.976;73.404;2022-08-19T09:44:48;24.50;;;6.28;;
59518;SDS011;46994;54.976;73.404;2022-08-19T09:47:15;26.40;;;5.22;;
59518;SDS011;46994;54.976;73.404;2022-08-19T09:49:42;25.08;;;6.05;;
59518;SDS011;46994;54.976;73.404;2022-08-19T09:52:09;30.85;;;5.90;;
59518;SDS011;46994;54.976;73.404;2022-08-19T09:54:37;16.40;;;6.53;;
59518;SDS011;46994;54.976;73.404;2022-08-19T09:57:05;20.67;;;6.88;;
59518;SDS011;46994;54.976;73.404;2022-08-19T09:59:32;21.70;;;7.03;;
59518;SDS011;46994;54.976;73.404;2022-08-19T10:02:00;17.73;;;7.35;;
59518;SDS011;46994;54.976;73.404;2022-08-19T10:04:27;14.25;;;7.63;;
59518;SDS011;46994;54.976;73.404;2022-08-19T10:07:14;17.35;;;6.90;;
59518;SDS011;46994;54.976;73.404;2022-08-19T10:09:41;13.73;;;5.82;;
59518;SDS011;46994;54.976;73.404;2022-08-19T10:12:08;21.25;;;7.00;;
59518;SDS011;46994;54.976;73.404;2022-08-19T10:14:35;9.27;;;6.50;;
59518;SDS011;46994;54.976;73.404;2022-08-19T10:17:03;15.73;;;7.25;;
59518;SDS011;46994;54.976;73.404;2022-08-19T10:19:30;13.95;;;8.43;;
59518;SDS011;46994;54.976;73.404;2022-08-19T10:22:02;13.80;;;9.43;;
59518;SDS011;46994;54.976;73.404;2022-08-19T10:24:31;15.02;;;9.63;;
59518;SDS011;46994;54.976;73.404;2022-08-19T10:26:58;12.88;;;7.65;;
59518;SDS011;46994;54.976;73.404;2022-08-19T10:29:26;21.92;;;10.40;;
59518;SDS011;46994;54.976;73.404;2022-08-19T10:31:54;21.15;;;9.52;;
59518;SDS011;46994;54.976;73.404;2022-08-19T10:34:22;17.80;;;9.15;;
59518;SDS011;46994;54.976;73.404;2022-08-19T10:36:49;16.10;;;10.25;;
59518;SDS011;46994;54.976;73.404;2022-08-19T10:39:17;19.98;;;11.00;;
59518;SDS011;46994;54.976;73.404;2022-08-19T10:41:44;20.48;;;11.02;;
59518;SDS011;46994;54.976;73.404;2022-08-19T10:44:11;12.88;;;8.85;;
59518;SDS011;46994;54.976;73.404;2022-08-19T10:46:40;13.70;;;9.45;;
59518;SDS011;46994;54.976;73.404;2022-08-19T10:49:10;12.63;;;7.82;;
59518;SDS011;46994;54.976;73.404;2022-08-19T10:51:38;11.95;;;7.00;;
59518;SDS011;46994;54.976;73.404;2022-08-19T10:54:24;9.45;;;5.97;;
59518;SDS011;46994;54.976;73.404;2022-08-19T10:57:11;9.85;;;6.22;;
59518;SDS011;46994;54.976;73.404;2022-08-19T10:59:38;11.63;;;5.72;;
59518;SDS011;46994;54.976;73.404;2022-08-19T11:02:08;5.60;;;5.10;;
59518;SDS011;46994;54.976;73.404;2022-08-19T11:04:37;7.72;;;5.97;;
59518;SDS011;46994;54.976;73.404;2022-08-19T11:07:04;6.60;;;4.85;;
59518;SDS011;46994;54.976;73.404;2022-08-19T11:09:35;8.20;;;5.03;;
59518;SDS011;46994;54.976;73.404;2022-08-19T11:12:05;6.47;;;4.32;;
59518;SDS011;46994;54.976;73.404;2022-08-19T11:14:36;7.15;;;4.60;;
59518;SDS011;46994;54.976;73.404;2022-08-19T11:17:04;9.15;;;4.47;;
59518;SDS011;46994;54.976;73.404;2022-08-19T11:19:34;8.93;;;4.25;;
59518;SDS011;46994;54.976;73.404;2022-08-19T11:22:01;9.82;;;4.05;;
59518;SDS011;46994;54.976;73.404;2022-08-19T11:24:29;9.05;;;4.28;;
59518;SDS011;46994;54.976;73.404;2022-08-19T11:27:00;9.88;;;4.43;;
59518;SDS011;46994;54.976;73.404;2022-08-19T11:29:32;14.00;;;4.18;;
59518;SDS011;46994;54.976;73.404;2022-08-19T11:32:02;6.22;;;5.05;;
59518;SDS011;46994;54.976;73.404;2022-08-19T11:34:31;6.72;;;5.10;;
59518;SDS011;46994;54.976;73.404;2022-08-19T11:36:58;11.45;;;6.13;;
59518;SDS011;46994;54.976;73.404;2022-08-19T11:39:26;7.53;;;5.10;;
59518;SDS011;46994;54.976;73.404;2022-08-19T11:41:55;11.02;;;5.13;;
59518;SDS011;46994;54.976;73.404;2022-08-19T11:44:24;9.23;;;4.85;;
59518;SDS011;46994;54.976;73.404;2022-08-19T11:46:51;5.50;;;4.38;;
59518;SDS011;46994;54.976;73.404;2022-08-19T11:49:19;5.57;;;4.30;;
59518;SDS011;46994;54.976;73.404;2022-08-19T11:51:47;3.80;;;3.50;;
59518;SDS011;46994;54.976;73.404;2022-08-19T11:54:16;5.93;;;3.90;;
59518;SDS011;46994;54.976;73.404;2022-08-19T11:56:44;8.40;;;4.90;;
59518;SDS011;46994;54.976;73.404;2022-08-19T11:59:12;7.35;;;3.97;;
59518;SDS011;46994;54.976;73.404;2022-08-19T12:01:39;5.15;;;3.95;;
59518;SDS011;46994;54.976;73.404;2022-08-19T12:04:09;5.88;;;4.43;;
59518;SDS011;46994;54.976;73.404;2022-08-19T12:06:37;4.38;;;3.78;;
59518;SDS011;46994;54.976;73.404;2022-08-19T12:09:06;6.47;;;4.50;;
59518;SDS011;46994;54.976;73.404;2022-08-19T12:11:35;5.45;;;4.50;;
59518;SDS011;46994;54.976;73.404;2022-08-19T12:14:04;5.93;;;4.80;;
59518;SDS011;46994;54.976;73.404;2022-08-19T12:16:32;10.45;;;4.57;;
59518;SDS011;46994;54.976;73.404;2022-08-19T12:18:59;6.85;;;5.35;;
59518;SDS011;46994;54.976;73.404;2022-08-19T12:21:30;7.00;;;4.13;;
59518;SDS011;46994;54.976;73.404;2022-08-19T12:23:59;7.25;;;4.32;;
59518;SDS011;46994;54.976;73.404;2022-08-19T12:26:28;7.55;;;5.32;;
59518;SDS011;46994;54.976;73.404;2022-08-19T12:28:57;4.65;;;4.00;;
59518;SDS011;46994;54.976;73.404;2022-08-19T12:31:28;5.82;;;4.15;;
59518;SDS011;46994;54.976;73.404;2022-08-19T12:33:56;6.60;;;4.75;;
59518;SDS011;46994;54.976;73.404;2022-08-19T12:36:23;6.15;;;4.60;;
59518;SDS011;46994;54.976;73.404;2022-08-19T12:38:51;6.70;;;5.20;;
59518;SDS011;46994;54.976;73.404;2022-08-19T12:41:19;6.95;;;5.57;;
59518;SDS011;46994;54.976;73.404;2022-08-19T12:43:48;6.25;;;4.75;;
59518;SDS011;46994;54.976;73.404;2022-08-19T12:46:16;6.55;;;5.05;;
59518;SDS011;46994;54.976;73.404;2022-08-19T12:48:44;5.78;;;4.47;;
59518;SDS011;46994;54.976;73.404;2022-08-19T12:51:15;9.07;;;5.38;;
59518;SDS011;46994;54.976;73.404;2022-08-19T12:53:45;12.77;;;7.27;;
59518;SDS011;46994;54.976;73.404;2022-08-19T12:56:13;19.52;;;8.77;;
59518;SDS011;46994;54.976;73.404;2022-08-19T12:58:41;18.67;;;8.25;;
59518;SDS011;46994;54.976;73.404;2022-08-19T13:01:09;30.83;;;8.65;;
59518;SDS011;46994;54.976;73.404;2022-08-19T13:03:39;13.07;;;8.98;;
59518;SDS011;46994;54.976;73.404;2022-08-19T13:06:08;11.15;;;7.18;;
59518;SDS011;46994;54.976;73.404;2022-08-19T13:08:36;13.32;;;8.90;;
59518;SDS011;46994;54.976;73.404;2022-08-19T13:11:08;14.02;;;8.23;;
59518;SDS011;46994;54.976;73.404;2022-08-19T13:13:40;13.07;;;8.48;;
59518;SDS011;46994;54.976;73.404;2022-08-19T13:16:09;17.88;;;9.50;;
59518;SDS011;46994;54.976;73.404;2022-08-19T13:18:38;6.80;;;5.47;;
59518;SDS011;46994;54.976;73.404;2022-08-19T13:21:06;16.15;;;8.18;;
59518;SDS011;46994;54.976;73.404;2022-08-19T13:23:35;9.27;;;6.05;;
59518;SDS011;46994;54.976;73.404;2022-08-19T13:26:03;11.50;;;7.47;;
59518;SDS011;46994;54.976;73.404;2022-08-19T13:28:32;10.38;;;7.22;;
59518;SDS011;46994;54.976;73.404;2022-08-19T13:31:18;10.05;;;6.40;;
59518;SDS011;46994;54.976;73.404;2022-08-19T13:34:05;8.43;;;6.38;;
59518;SDS011;46994;54.976;73.404;2022-08-19T13:36:32;10.65;;;6.63;;
59518;SDS011;46994;54.976;73.404;2022-08-19T13:39:00;6.70;;;4.93;;
59518;SDS011;46994;54.976;73.404;2022-08-19T13:41:27;8.95;;;6.43;;
59518;SDS011;46994;54.976;73.404;2022-08-19T13:43:54;12.90;;;8.57;;
59518;SDS011;46994;54.976;73.404;2022-08-19T13:46:21;10.60;;;8.20;;
59518;SDS011;46994;54.976;73.404;2022-08-19T13:48:48;8.50;;;6.25;;
59518;SDS011;46994;54.976;73.404;2022-08-19T13:51:15;17.75;;;9.50;;
59518;SDS011;46994;54.976;73.404;2022-08-19T13:53:43;13.75;;;11.93;;
59518;SDS011;46994;54.976;73.404;2022-08-19T13:56:12;29.75;;;11.57;;
59518;SDS011;46994;54.976;73.404;2022-08-19T13:58:40;11.68;;;8.93;;
59518;SDS011;46994;54.976;73.404;2022-08-19T14:01:07;7.75;;;6.07;;
59518;SDS011;46994;54.976;73.404;2022-08-19T14:03:35;12.10;;;8.57;;
59518;SDS011;46994;54.976;73.404;2022-08-19T14:06:02;16.77;;;11.38;;
59518;SDS011;46994;54.976;73.404;2022-08-19T14:08:29;12.27;;;8.13;;
59518;SDS011;46994;54.976;73.404;2022-08-19T14:10:58;11.70;;;9.65;;
59518;SDS011;46994;54.976;73.404;2022-08-19T14:13:25;16.70;;;12.25;;
59518;SDS011;46994;54.976;73.404;2022-08-19T14:15:52;21.27;;;10.60;;
59518;SDS011;46994;54.976;73.404;2022-08-19T14:18:19;20.95;;;12.77;;
59518;SDS011;46994;54.976;73.404;2022-08-19T14:20:46;16.25;;;12.13;;
59518;SDS011;46994;54.976;73.404;2022-08-19T14:23:13;20.85;;;13.32;;
59518;SDS011;46994;54.976;73.404;2022-08-19T14:25:40;17.15;;;11.85;;
59518;SDS011;46994;54.976;73.404;2022-08-19T14:28:06;19.52;;;12.23;;
59518;SDS011;46994;54.976;73.404;2022-08-19T14:30:34;20.40;;;14.77;;
59518;SDS011;46994;54.976;73.404;2022-08-19T14:33:03;25.40;;;16.13;;
59518;SDS011;46994;54.976;73.404;2022-08-19T14:35:35;21.25;;;14.48;;
59518;SDS011;46994;54.976;73.404;2022-08-19T14:38:03;21.73;;;14.77;;
59518;SDS011;46994;54.976;73.404;2022-08-19T14:40:31;24.20;;;13.38;;
59518;SDS011;46994;54.976;73.404;2022-08-19T14:43:02;17.15;;;12.70;;
59518;SDS011;46994;54.976;73.404;2022-08-19T14:45:31;19.33;;;12.20;;
59518;SDS011;46994;54.976;73.404;2022-08-19T14:48:00;13.80;;;10.25;;
59518;SDS011;46994;54.976;73.404;2022-08-19T14:50:27;13.27;;;7.68;;
59518;SDS011;46994;54.976;73.404;2022-08-19T14:52:58;15.15;;;9.65;;
59518;SDS011;46994;54.976;73.404;2022-08-19T14:55:27;11.32;;;9.00;;